createdAt,value
2019-01-25T00:00:25.130Z,24.00
2019-01-25T00:02:55.624Z,24.50
2019-01-25T00:05:26.104Z,24.47
2019-01-25T00:07:56.572Z,23.30
2019-01-25T00:10:27.117Z,22.77
2019-01-25T00:12:57.599Z,23.67
2019-01-25T00:15:28.151Z,24.10
2019-01-25T00:17:58.612Z,23.33
2019-01-25T00:20:29.207Z,22.33
2019-01-25T00:22:59.671Z,23.43
2019-01-25T00:25:30.196Z,23.03
2019-01-25T00:28:00.650Z,24.57
2019-01-25T00:30:31.217Z,22.43
2019-01-25T00:33:01.664Z,23.20
2019-01-25T00:35:32.210Z,22.80
2019-01-25T00:38:02.664Z,23.53
2019-01-25T00:40:33.202Z,22.50
2019-01-25T00:43:03.714Z,23.07
2019-01-25T00:45:34.242Z,23.20
2019-01-25T00:48:04.968Z,23.03
2019-01-25T00:50:35.558Z,23.53
2019-01-25T00:53:06.559Z,24.63
2019-01-25T00:55:37.127Z,25.00
2019-01-25T00:58:08.215Z,23.60
2019-01-25T01:00:38.732Z,22.97
2019-01-25T01:03:09.398Z,24.40
2019-01-25T01:05:39.908Z,23.87
2019-01-25T01:08:10.438Z,22.37
2019-01-25T01:10:40.961Z,22.83
2019-01-25T01:13:11.422Z,23.93
2019-01-25T01:15:41.944Z,21.90
2019-01-25T01:18:12.488Z,22.87
2019-01-25T01:20:43.118Z,24.67
2019-01-25T01:23:13.757Z,22.77
2019-01-25T01:25:44.252Z,25.07
2019-01-25T01:28:14.804Z,27.10
2019-01-25T01:30:45.322Z,26.23
2019-01-25T01:33:15.803Z,25.47
2019-01-25T01:35:46.326Z,24.27
2019-01-25T01:38:16.790Z,23.20
2019-01-25T01:40:47.257Z,24.23
2019-01-25T01:43:17.789Z,24.37
2019-01-25T01:45:48.326Z,24.50
2019-01-25T01:48:18.841Z,25.13
2019-01-25T01:50:49.488Z,24.60
2019-01-25T01:53:19.955Z,24.47
2019-01-25T01:55:50.506Z,22.93
2019-01-25T01:58:20.951Z,24.63
2019-01-25T02:00:51.492Z,24.87
2019-01-25T02:03:21.995Z,25.37
2019-01-25T02:05:52.485Z,24.10
2019-01-25T02:08:22.946Z,24.37
2019-01-25T02:10:53.460Z,24.23
2019-01-25T02:13:23.932Z,25.20
2019-01-25T02:15:54.455Z,26.17
2019-01-25T02:18:24.916Z,25.47
2019-01-25T02:20:55.399Z,24.50
2019-01-25T02:23:25.906Z,24.73
2019-01-25T02:25:56.382Z,24.30
2019-01-25T02:28:26.918Z,25.40
2019-01-25T02:30:57.392Z,25.77
2019-01-25T02:33:27.845Z,24.13
2019-01-25T02:35:58.347Z,25.60
2019-01-25T02:38:28.793Z,24.17
2019-01-25T02:40:59.289Z,25.97
2019-01-25T02:43:29.801Z,25.03
2019-01-25T02:46:00.348Z,24.23
2019-01-25T02:48:30.861Z,25.20
2019-01-25T02:51:01.490Z,24.97
2019-01-25T02:53:31.927Z,24.30
2019-01-25T02:56:02.404Z,24.50
2019-01-25T02:58:32.941Z,25.37
2019-01-25T03:01:03.455Z,23.73
2019-01-25T03:03:33.938Z,22.50
2019-01-25T03:06:04.820Z,23.60
2019-01-25T03:08:36.643Z,23.97
2019-01-25T03:11:07.178Z,24.13
2019-01-25T03:13:37.708Z,23.67
2019-01-25T03:16:08.270Z,22.67
2019-01-25T03:18:38.795Z,23.47
2019-01-25T03:21:09.279Z,23.20
2019-01-25T03:23:39.778Z,23.90
2019-01-25T03:26:10.273Z,23.37
2019-01-25T03:28:40.752Z,22.40
2019-01-25T03:31:11.248Z,23.43
2019-01-25T03:33:41.805Z,24.20
2019-01-25T03:36:12.280Z,23.47
2019-01-25T03:38:42.843Z,23.17
2019-01-25T03:41:13.337Z,24.40
2019-01-25T03:43:43.867Z,25.63
2019-01-25T03:46:14.411Z,22.87
2019-01-25T03:48:45.144Z,25.20
2019-01-25T03:51:15.601Z,24.67
2019-01-25T03:53:46.087Z,25.53
2019-01-25T03:56:16.576Z,25.17
2019-01-25T03:58:47.078Z,26.10
2019-01-25T04:01:17.580Z,24.50
2019-01-25T04:03:48.063Z,23.97
2019-01-25T04:06:18.529Z,24.17
2019-01-25T04:08:49.087Z,24.13
2019-01-25T04:11:19.744Z,23.87
2019-01-25T04:13:50.236Z,23.63
2019-01-25T04:16:20.709Z,24.73
2019-01-25T04:18:51.240Z,24.87
2019-01-25T04:21:21.689Z,25.50
2019-01-25T04:23:52.153Z,26.90
2019-01-25T04:26:22.657Z,25.60
2019-01-25T04:28:53.109Z,25.97
2019-01-25T04:31:23.606Z,27.07
2019-01-25T04:33:54.121Z,27.67
2019-01-25T04:36:24.594Z,26.90
2019-01-25T04:38:55.024Z,25.27
2019-01-25T04:41:25.848Z,28.17
2019-01-25T04:43:56.288Z,25.73
2019-01-25T04:46:26.775Z,26.63
2019-01-25T04:48:57.217Z,26.77
2019-01-25T04:51:27.802Z,27.40
2019-01-25T04:53:59.670Z,27.50
2019-01-25T04:56:35.141Z,25.83
2019-01-25T04:59:05.694Z,27.60
2019-01-25T05:01:36.147Z,26.93
2019-01-25T05:04:06.906Z,27.40
2019-01-25T05:06:37.329Z,27.47
2019-01-25T05:09:10.279Z,26.87
2019-01-25T05:11:40.812Z,27.37
2019-01-25T05:14:11.356Z,26.50
2019-01-25T05:16:41.828Z,26.07
2019-01-25T05:19:12.395Z,26.43
2019-01-25T05:21:42.866Z,26.87
2019-01-25T05:24:14.105Z,27.03
2019-01-25T05:26:44.634Z,26.27
2019-01-25T05:29:15.174Z,26.53
2019-01-25T05:31:45.683Z,27.97
2019-01-25T05:34:16.191Z,28.60
2019-01-25T05:36:46.629Z,27.10
2019-01-25T05:39:17.175Z,26.93
2019-01-25T05:41:52.696Z,26.17
2019-01-25T05:44:23.145Z,27.37
2019-01-25T05:46:53.639Z,26.53
2019-01-25T05:49:26.170Z,26.23
2019-01-25T05:51:56.586Z,27.63
2019-01-25T05:54:27.006Z,28.47
2019-01-25T05:56:57.452Z,28.50
2019-01-25T05:59:28.002Z,26.80
2019-01-25T06:01:58.427Z,27.50
2019-01-25T06:04:36.349Z,26.97
2019-01-25T06:07:06.873Z,26.80
2019-01-25T06:09:37.413Z,28.53
2019-01-25T06:12:07.843Z,26.97
2019-01-25T06:14:38.274Z,25.87
2019-01-25T06:17:08.782Z,27.27
2019-01-25T06:19:39.280Z,27.10
2019-01-25T06:22:09.707Z,27.00
2019-01-25T06:24:40.135Z,28.10
2019-01-25T06:27:10.572Z,26.30
2019-01-25T06:29:41.020Z,26.60
2019-01-25T06:32:11.468Z,26.93
2019-01-25T06:34:41.892Z,26.87
2019-01-25T06:37:12.304Z,28.00
2019-01-25T06:39:42.764Z,28.47
2019-01-25T06:42:13.164Z,25.97
2019-01-25T06:44:43.609Z,26.57
2019-01-25T06:47:14.032Z,27.53
2019-01-25T06:49:44.468Z,26.67
2019-01-25T06:52:14.892Z,26.47
2019-01-25T06:54:45.330Z,28.87
2019-01-25T06:57:25.350Z,27.97
2019-01-25T06:59:55.842Z,27.87
2019-01-25T07:02:30.971Z,26.90
2019-01-25T07:05:01.458Z,27.13
2019-01-25T07:07:34.125Z,26.50
2019-01-25T07:10:06.882Z,29.10
2019-01-25T07:12:37.372Z,27.93
2019-01-25T07:15:09.401Z,28.03
2019-01-25T07:17:39.821Z,28.50
2019-01-25T07:20:12.695Z,27.90
2019-01-25T07:22:43.124Z,29.47
2019-01-25T07:25:14.095Z,28.77
2019-01-25T07:27:44.506Z,26.37
2019-01-25T07:30:15.174Z,28.80
2019-01-25T07:32:45.803Z,28.83
2019-01-25T07:35:16.305Z,30.33
2019-01-25T07:37:46.741Z,27.53
2019-01-25T07:40:17.201Z,28.50
2019-01-25T07:42:47.898Z,28.97
2019-01-25T07:45:18.333Z,29.13
2019-01-25T07:47:48.838Z,28.57
2019-01-25T07:50:19.303Z,30.07
2019-01-25T07:52:49.725Z,28.20
2019-01-25T07:55:20.197Z,29.43
2019-01-25T07:57:50.605Z,30.13
2019-01-25T08:00:21.067Z,29.13
2019-01-25T08:02:51.513Z,29.23
2019-01-25T08:05:21.920Z,30.37
2019-01-25T08:07:52.421Z,32.93
2019-01-25T08:10:23.060Z,31.33
2019-01-25T08:12:53.623Z,29.37
2019-01-25T08:15:24.261Z,33.70
2019-01-25T08:17:54.771Z,34.40
2019-01-25T08:20:25.320Z,32.67
2019-01-25T08:22:55.878Z,35.20
2019-01-25T08:25:26.322Z,31.90
2019-01-25T08:27:56.776Z,30.60
2019-01-25T08:30:27.281Z,33.73
2019-01-25T08:32:57.778Z,33.73
2019-01-25T08:35:28.202Z,32.40
2019-01-25T08:37:58.667Z,29.73
2019-01-25T08:40:29.078Z,29.93
2019-01-25T08:42:59.514Z,29.77
2019-01-25T08:45:30.079Z,29.47
2019-01-25T08:48:00.670Z,30.23
2019-01-25T08:50:31.098Z,29.73
2019-01-25T08:53:01.690Z,31.37
2019-01-25T08:55:32.133Z,29.97
2019-01-25T08:58:02.712Z,30.50
2019-01-25T09:00:33.144Z,29.23
2019-01-25T09:03:03.660Z,30.20
2019-01-25T09:05:34.221Z,30.37
2019-01-25T09:08:04.735Z,29.93
2019-01-25T09:10:35.331Z,30.87
2019-01-25T09:13:05.745Z,30.13
2019-01-25T09:15:36.461Z,31.17
2019-01-25T09:18:07.038Z,29.57
2019-01-25T09:20:37.511Z,30.83
2019-01-25T09:23:07.947Z,30.57
2019-01-25T09:25:38.386Z,29.57
2019-01-25T09:28:08.822Z,29.30
2019-01-25T09:30:39.355Z,28.63
2019-01-25T09:33:09.852Z,28.90
2019-01-25T09:35:40.262Z,28.37
2019-01-25T09:38:10.699Z,29.03
2019-01-25T09:40:41.284Z,29.63
2019-01-25T09:43:11.755Z,31.37
2019-01-25T09:45:42.172Z,31.43
2019-01-25T09:48:12.718Z,30.27
2019-01-25T09:50:43.189Z,29.33
2019-01-25T09:53:13.647Z,31.70
2019-01-25T09:55:44.051Z,31.00
2019-01-25T09:58:17.325Z,30.00
2019-01-25T10:01:06.157Z,31.50
2019-01-25T10:03:36.556Z,30.43
2019-01-25T10:06:06.970Z,29.87
2019-01-25T10:08:37.467Z,29.97
2019-01-25T10:11:07.949Z,31.73
2019-01-25T10:13:38.360Z,30.93
2019-01-25T10:16:08.804Z,30.97
2019-01-25T10:18:39.272Z,29.40
2019-01-25T10:21:09.708Z,30.43
2019-01-25T10:23:59.262Z,28.67
2019-01-25T10:26:29.739Z,28.20
2019-01-25T10:29:00.153Z,29.20
2019-01-25T10:31:30.758Z,28.47
2019-01-25T10:34:01.201Z,29.03
2019-01-25T10:36:31.675Z,27.83
2019-01-25T10:39:02.157Z,27.93
2019-01-25T10:41:32.735Z,27.87
2019-01-25T10:44:03.195Z,25.70
2019-01-25T10:46:33.713Z,26.70
2019-01-25T10:49:04.498Z,27.07
2019-01-25T10:51:34.936Z,26.30
2019-01-25T10:54:06.281Z,27.57
2019-01-25T10:56:41.804Z,28.27
2019-01-25T10:59:08.842Z,25.53
2019-01-25T11:01:39.269Z,28.60
2019-01-25T11:04:11.628Z,27.30
2019-01-25T11:06:41.911Z,26.97
2019-01-25T11:09:12.334Z,27.63
2019-01-25T11:11:42.761Z,28.60
2019-01-25T11:14:13.242Z,28.47
2019-01-25T11:16:43.674Z,26.53
2019-01-25T11:19:14.143Z,26.23
2019-01-25T11:21:44.559Z,25.53
2019-01-25T11:24:15.005Z,26.27
2019-01-25T11:26:45.466Z,27.07
2019-01-25T11:29:16.026Z,27.60
2019-01-25T11:31:46.519Z,28.00
2019-01-25T11:34:16.994Z,26.00
2019-01-25T11:36:47.388Z,28.27
2019-01-25T11:39:17.837Z,27.40
2019-01-25T11:41:48.286Z,27.77
2019-01-25T11:44:18.709Z,27.07
2019-01-25T11:46:49.127Z,26.10
2019-01-25T11:49:19.630Z,28.07
2019-01-25T11:51:50.071Z,26.80
2019-01-25T11:54:20.565Z,26.33
2019-01-25T11:56:51.008Z,25.07
2019-01-25T11:59:21.490Z,25.13
2019-01-25T12:01:51.939Z,26.00
2019-01-25T12:04:22.398Z,25.90
2019-01-25T12:06:52.854Z,27.87
2019-01-25T12:09:23.388Z,25.37
2019-01-25T12:11:53.809Z,26.20
2019-01-25T12:14:24.386Z,27.53
2019-01-25T12:16:54.854Z,26.43
2019-01-25T12:19:25.323Z,26.20
2019-01-25T12:21:55.778Z,26.83
2019-01-25T12:24:26.483Z,25.40
2019-01-25T12:26:57.018Z,24.93
2019-01-25T12:29:27.489Z,24.20
2019-01-25T12:31:57.895Z,26.50
2019-01-25T12:34:28.319Z,26.23
2019-01-25T12:36:58.734Z,25.80
2019-01-25T12:39:29.243Z,24.03
2019-01-25T12:41:59.699Z,22.67
2019-01-25T12:44:30.214Z,23.67
2019-01-25T12:47:00.742Z,22.53
2019-01-25T12:49:31.266Z,23.33
2019-01-25T12:52:08.425Z,24.23
2019-01-25T12:54:38.956Z,24.30
2019-01-25T12:57:09.459Z,24.57
2019-01-25T12:59:39.952Z,24.03
2019-01-25T13:02:10.554Z,26.40
2019-01-25T13:04:41.444Z,26.57
2019-01-25T13:07:11.955Z,26.07
2019-01-25T13:09:42.396Z,26.97
2019-01-25T13:12:12.898Z,26.10
2019-01-25T13:14:43.370Z,25.67
2019-01-25T13:17:13.884Z,26.10
2019-01-25T13:19:44.392Z,25.47
2019-01-25T13:22:14.873Z,26.57
2019-01-25T13:24:45.432Z,26.47
2019-01-25T13:27:15.912Z,25.83
2019-01-25T13:29:46.374Z,25.83
2019-01-25T13:32:16.808Z,24.33
2019-01-25T13:34:47.412Z,25.50
2019-01-25T13:37:17.867Z,24.60
2019-01-25T13:39:48.417Z,26.17
2019-01-25T13:42:19.000Z,25.70
2019-01-25T13:44:50.685Z,25.53
2019-01-25T13:47:22.994Z,26.37
2019-01-25T13:49:53.558Z,25.70
2019-01-25T13:52:24.818Z,25.50
2019-01-25T13:54:55.399Z,25.77
2019-01-25T13:57:25.842Z,25.83
2019-01-25T13:59:57.258Z,26.50
2019-01-25T14:02:29.216Z,26.73
2019-01-25T14:04:59.868Z,26.23
2019-01-25T14:07:30.358Z,27.03
2019-01-25T14:10:00.870Z,26.97
2019-01-25T14:12:37.866Z,27.33
2019-01-25T14:15:09.622Z,26.63
2019-01-25T14:17:40.052Z,27.60
2019-01-25T14:20:22.952Z,29.00
2019-01-25T14:22:47.959Z,26.93
2019-01-25T14:25:18.622Z,28.10
2019-01-25T14:27:49.165Z,28.80
2019-01-25T14:30:43.302Z,28.43
2019-01-25T14:33:14.070Z,27.20
2019-01-25T14:35:44.630Z,27.73
2019-01-25T14:38:19.026Z,28.63
2019-01-25T14:40:49.545Z,28.10
2019-01-25T14:43:20.091Z,28.37
2019-01-25T14:45:50.639Z,27.43
2019-01-25T14:48:21.148Z,28.80
2019-01-25T14:50:51.659Z,28.43
2019-01-25T14:53:22.194Z,28.97
2019-01-25T14:55:52.736Z,30.03
2019-01-25T14:58:23.210Z,29.37
2019-01-25T15:00:53.727Z,31.87
2019-01-25T15:03:24.636Z,30.50
2019-01-25T15:05:55.157Z,29.47
2019-01-25T15:08:25.656Z,30.53
2019-01-25T15:10:56.114Z,31.43
2019-01-25T15:13:26.535Z,30.80
2019-01-25T15:15:57.125Z,31.17
2019-01-25T15:18:27.721Z,31.50
2019-01-25T15:20:58.226Z,29.30
2019-01-25T15:23:28.702Z,29.30
2019-01-25T15:25:59.172Z,30.27
2019-01-25T15:28:29.757Z,31.60
2019-01-25T15:31:00.285Z,30.63
2019-01-25T15:33:30.862Z,30.67
2019-01-25T15:36:02.430Z,30.60
2019-01-25T15:38:34.593Z,29.30
2019-01-25T15:41:05.196Z,28.80
2019-01-25T15:43:35.692Z,29.73
2019-01-25T15:46:06.543Z,30.07
2019-01-25T15:48:37.403Z,31.50
2019-01-25T15:51:08.006Z,31.97
2019-01-25T15:53:39.442Z,29.90
2019-01-25T15:56:10.111Z,31.13
2019-01-25T15:58:40.644Z,30.53
2019-01-25T16:01:11.163Z,31.97
2019-01-25T16:03:41.680Z,31.30
2019-01-25T16:06:12.202Z,30.87
2019-01-25T16:08:42.651Z,32.27
2019-01-25T16:11:13.175Z,32.20
2019-01-25T16:13:43.644Z,32.67
2019-01-25T16:16:14.136Z,33.92
2019-01-25T16:18:44.740Z,34.77
2019-01-25T16:21:15.393Z,32.93
2019-01-25T16:23:45.910Z,32.07
2019-01-25T16:26:16.417Z,34.53
2019-01-25T16:28:46.872Z,34.40
2019-01-25T16:31:17.460Z,34.23
2019-01-25T16:33:47.930Z,34.10
2019-01-25T16:36:18.439Z,33.93
2019-01-25T16:38:48.849Z,36.00
2019-01-25T16:41:19.363Z,35.53
2019-01-25T16:43:49.767Z,32.40
2019-01-25T16:46:20.304Z,29.60
2019-01-25T16:48:50.821Z,28.87
2019-01-25T16:51:21.299Z,29.20
2019-01-25T16:53:51.919Z,26.70
2019-01-25T16:56:23.288Z,28.73
2019-01-25T16:58:57.874Z,27.13
2019-01-25T17:01:28.452Z,27.90
2019-01-25T17:03:58.927Z,26.57
2019-01-25T17:06:29.483Z,25.90
2019-01-25T17:08:59.941Z,26.83
2019-01-25T17:11:30.548Z,24.43
2019-01-25T17:14:01.043Z,24.17
2019-01-25T17:16:31.527Z,23.57
2019-01-25T17:19:01.958Z,22.23
2019-01-25T17:21:32.434Z,21.33
2019-01-25T17:24:02.857Z,22.33
2019-01-25T17:26:33.406Z,22.17
2019-01-25T17:29:04.124Z,22.10
2019-01-25T17:31:34.628Z,19.80
2019-01-25T17:34:05.141Z,19.23
2019-01-25T17:36:35.631Z,18.87
2019-01-25T17:39:14.004Z,18.90
2019-01-25T17:41:44.866Z,18.90
2019-01-25T17:44:15.456Z,18.53
2019-01-25T17:46:45.975Z,19.40
2019-01-25T17:49:16.590Z,19.50
2019-01-25T17:51:47.091Z,21.17
2019-01-25T17:54:17.537Z,19.53
2019-01-25T17:56:48.038Z,19.07
2019-01-25T17:59:18.613Z,17.43
2019-01-25T18:01:49.113Z,17.70
2019-01-25T18:04:19.596Z,18.50
2019-01-25T18:06:50.060Z,18.00
2019-01-25T18:09:20.485Z,16.67
2019-01-25T18:11:51.070Z,15.63
2019-01-25T18:14:21.601Z,15.63
2019-01-25T18:19:50.374Z,16.00
2019-01-25T18:22:22.062Z,15.83
2019-01-25T18:24:52.854Z,15.23
2019-01-25T18:27:23.746Z,14.13
2019-01-25T18:30:00.720Z,15.33
2019-01-25T18:32:32.128Z,16.47
2019-01-25T18:35:02.981Z,15.73
2019-01-25T18:37:35.546Z,15.43
2019-01-25T18:40:09.103Z,16.20
2019-01-25T18:42:40.212Z,15.63
2019-01-25T18:45:11.695Z,16.57
2019-01-25T18:47:43.143Z,16.20
2019-01-25T18:52:49.784Z,16.63
2019-01-25T18:55:21.953Z,18.27
2019-01-25T18:57:52.563Z,18.67
2019-01-25T19:00:23.625Z,18.70
2019-01-25T19:02:54.126Z,18.90
2019-01-25T19:05:24.596Z,18.17
2019-01-25T19:07:55.064Z,18.03
2019-01-25T19:10:26.968Z,19.00
2019-01-25T19:12:57.553Z,18.60
2019-01-25T19:15:29.758Z,18.73
2019-01-25T19:18:00.279Z,18.40
2019-01-25T19:20:30.733Z,17.83
2019-01-25T19:23:01.245Z,18.67
2019-01-25T19:25:34.613Z,18.60
2019-01-25T19:28:05.146Z,18.37
2019-01-25T19:30:39.237Z,17.70
2019-01-25T19:33:10.660Z,18.70
2019-01-25T19:35:41.552Z,19.40
2019-01-25T19:38:15.170Z,18.37
2019-01-25T19:40:45.664Z,19.13
2019-01-25T19:43:16.346Z,20.00
2019-01-25T19:45:46.792Z,19.83
2019-01-25T19:48:17.379Z,18.80
2019-01-25T19:50:48.320Z,19.20
2019-01-25T19:53:18.839Z,19.23
2019-01-25T19:55:49.287Z,20.50
2019-01-25T19:58:20.797Z,18.37
2019-01-25T20:00:51.307Z,20.53
2019-01-25T20:03:21.787Z,19.93
2019-01-25T20:05:52.235Z,20.07
2019-01-25T20:08:22.770Z,19.30
2019-01-25T20:10:53.328Z,19.80
2019-01-25T20:13:24.061Z,19.30
2019-01-25T20:15:54.540Z,20.20
2019-01-25T20:18:24.997Z,19.63
2019-01-25T20:20:55.485Z,20.63
2019-01-25T20:23:25.933Z,18.87
2019-01-25T20:25:56.388Z,19.63
2019-01-25T20:28:26.837Z,18.27
2019-01-25T20:30:57.282Z,19.13
2019-01-25T20:33:28.078Z,18.73
2019-01-25T20:35:58.672Z,19.47
2019-01-25T20:38:29.239Z,19.00
2019-01-25T20:41:00.214Z,18.37
2019-01-25T20:43:30.786Z,18.30
2019-01-25T20:46:02.306Z,19.67
2019-01-25T20:48:32.856Z,18.73
2019-01-25T20:51:03.416Z,18.13
2019-01-25T20:53:33.935Z,17.70
2019-01-25T20:56:04.913Z,17.80
2019-01-25T20:58:35.508Z,17.20
2019-01-25T21:01:05.988Z,17.63
2019-01-25T21:03:36.464Z,17.50
2019-01-25T21:06:07.075Z,17.87
2019-01-25T21:08:37.518Z,17.33
2019-01-25T21:11:08.152Z,16.67
2019-01-25T21:13:38.625Z,18.03
2019-01-25T21:16:09.172Z,16.70
2019-01-25T21:18:39.735Z,17.07
2019-01-25T21:21:10.239Z,17.70
2019-01-25T21:23:40.827Z,15.80
2019-01-25T21:26:32.631Z,16.73
2019-01-25T21:29:05.784Z,16.40
2019-01-25T21:31:36.368Z,15.93
2019-01-25T21:34:07.283Z,16.17
2019-01-25T21:36:37.807Z,16.13
2019-01-25T21:39:10.812Z,15.87
2019-01-25T21:41:41.326Z,16.13
2019-01-25T21:44:11.861Z,17.17
2019-01-25T21:46:53.187Z,16.27
2019-01-25T21:49:41.478Z,15.73
2019-01-25T21:52:28.076Z,16.77
2019-01-25T21:55:02.467Z,15.93
2019-01-25T21:57:42.391Z,16.50
2019-01-25T22:00:33.007Z,15.95
2019-01-25T22:03:08.695Z,17.77
2019-01-25T22:05:50.334Z,16.83
2019-01-25T22:08:23.186Z,16.73
2019-01-25T22:11:00.691Z,17.17
2019-01-25T22:13:35.056Z,16.90
2019-01-25T22:16:10.530Z,16.17
2019-01-25T22:18:49.333Z,16.97
2019-01-25T22:21:24.121Z,16.47
2019-01-25T22:24:05.535Z,17.47
2019-01-25T22:26:38.897Z,17.83
2019-01-25T22:29:11.834Z,16.87
2019-01-25T22:31:49.903Z,17.67
2019-01-25T22:34:28.717Z,18.37
2019-01-25T22:37:23.100Z,17.77
2019-01-25T22:39:54.521Z,17.90
2019-01-25T22:42:28.724Z,17.70
2019-01-25T22:45:06.314Z,19.50
2019-01-25T22:47:41.847Z,18.57
2019-01-25T22:50:23.708Z,19.63
2019-01-25T22:52:57.444Z,18.60
2019-01-25T22:55:37.042Z,19.97
2019-01-25T22:58:10.102Z,19.40
2019-01-25T23:01:26.272Z,18.70
2019-01-25T23:04:59.432Z,18.83
2019-01-25T23:07:39.222Z,19.97
2019-01-25T23:10:23.544Z,20.40
2019-01-25T23:13:15.038Z,20.50
2019-01-25T23:15:51.429Z,20.13
2019-01-25T23:18:31.062Z,19.60
2019-01-25T23:21:09.452Z,19.37
2019-01-25T23:23:46.579Z,19.37
2019-01-25T23:26:44.402Z,19.87
2019-01-25T23:29:25.001Z,20.00
2019-01-25T23:32:12.125Z,20.70
2019-01-25T23:34:46.153Z,20.53
2019-01-25T23:37:18.453Z,19.40
2019-01-25T23:39:51.154Z,20.57
2019-01-25T23:42:24.790Z,20.47
2019-01-25T23:45:00.847Z,21.73
2019-01-25T23:47:34.432Z,21.47
2019-01-25T23:50:14.455Z,20.40
2019-01-25T23:52:46.330Z,20.53
2019-01-25T23:55:17.157Z,20.93
2019-01-25T23:57:48.430Z,22.27
